Time;durP1;ratioP1;P1;durP2;ratioP2;P2;SDS_P1;SDS_P2;PMS_P1;PMS_P2;Temp;Humidity;BMP_temperature;BMP_pressure;BME280_temperature;BME280_humidity;BME280_pressure;Samples;Min_cycle;Max_cycle;Signal;HPM_P1;HPM_P2
2021/06/25 00:00:14;;;;;;;6.72;2.90;;;;;;;;;;4900874;29;20037;-43
2021/06/25 00:02:40;;;;;;;7.28;3.05;;;;;;;;;;4900599;29;20066;-43
2021/06/25 00:05:06;;;;;;;6.28;2.92;;;;;;;;;;4900496;29;20028;-44
2021/06/25 00:07:31;;;;;;;6.97;3.63;;;;;;;;;;4900310;29;20052;-43
2021/06/25 00:09:57;;;;;;;13.20;3.03;;;;;;;;;;4900567;29;20029;-43
2021/06/25 00:12:22;;;;;;;9.43;4.38;;;;;;;;;;4900286;29;20361;-43
2021/06/25 00:14:48;;;;;;;9.57;3.08;;;;;;;;;;4900602;29;20017;-43
2021/06/25 00:17:13;;;;;;;8.68;2.97;;;;;;;;;;4900176;29;20123;-43
2021/06/25 00:19:38;;;;;;;12.27;3.45;;;;;;;;;;4900143;29;20084;-43
2021/06/25 00:22:04;;;;;;;9.48;3.50;;;;;;;;;;4900228;29;20076;-43
2021/06/25 00:24:29;;;;;;;14.52;3.30;;;;;;;;;;4898875;29;20441;-43
2021/06/25 00:26:55;;;;;;;10.00;3.58;;;;;;;;;;4900309;29;20178;-43
2021/06/25 00:29:20;;;;;;;10.90;3.35;;;;;;;;;;4900175;29;20595;-43
2021/06/25 00:31:45;;;;;;;10.27;3.35;;;;;;;;;;4900002;29;20035;-43
2021/06/25 00:34:11;;;;;;;4.68;2.88;;;;;;;;;;4900000;29;20024;-43
2021/06/25 00:36:36;;;;;;;5.82;3.08;;;;;;;;;;4900153;29;20075;-43
2021/06/25 00:39:02;;;;;;;13.68;3.90;;;;;;;;;;4899588;29;20059;-43
2021/06/25 00:41:27;;;;;;;14.38;4.20;;;;;;;;;;4898443;29;20092;-43
2021/06/25 00:43:52;;;;;;;6.28;3.33;;;;;;;;;;4899889;29;20017;-43
2021/06/25 00:46:19;;;;;;;8.50;3.30;;;;;;;;;;4899807;29;20044;-43
2021/06/25 00:48:44;;;;;;;5.82;3.47;;;;;;;;;;4899663;29;20025;-43
2021/06/25 00:51:09;;;;;;;9.88;3.35;;;;;;;;;;4899628;29;20445;-43
2021/06/25 00:53:35;;;;;;;10.70;3.58;;;;;;;;;;4899525;29;20032;-43
2021/06/25 00:56:00;;;;;;;10.43;3.50;;;;;;;;;;4899926;29;20032;-43
2021/06/25 00:58:26;;;;;;;5.90;2.97;;;;;;;;;;4899394;29;20717;-43
2021/06/25 01:00:51;;;;;;;5.47;3.17;;;;;;;;;;4899777;29;20092;-43
2021/06/25 01:03:16;;;;;;;4.28;3.25;;;;;;;;;;4899487;29;20039;-43
2021/06/25 01:05:42;;;;;;;8.40;3.30;;;;;;;;;;4898132;29;20500;-43
2021/06/25 01:08:08;;;;;;;8.32;3.53;;;;;;;;;;4899621;29;20036;-44
2021/06/25 01:10:37;;;;;;;8.38;3.15;;;;;;;;;;4899250;29;20595;-43
2021/06/25 01:13:04;;;;;;;9.05;3.55;;;;;;;;;;4899513;29;20361;-44
2021/06/25 01:15:30;;;;;;;6.30;3.25;;;;;;;;;;4899190;29;20033;-44
2021/06/25 01:17:55;;;;;;;8.63;4.03;;;;;;;;;;4899401;29;20349;-43
2021/06/25 01:20:25;;;;;;;10.13;3.97;;;;;;;;;;4897765;29;20056;-43
2021/06/25 01:22:51;;;;;;;7.75;3.17;;;;;;;;;;4899172;29;20088;-44
2021/06/25 01:25:18;;;;;;;8.20;3.58;;;;;;;;;;4899308;29;20033;-43
2021/06/25 01:27:45;;;;;;;8.13;3.10;;;;;;;;;;4898953;29;20044;-43
2021/06/25 01:30:12;;;;;;;10.57;3.67;;;;;;;;;;4898848;29;20499;-44
2021/06/25 01:32:37;;;;;;;7.68;3.80;;;;;;;;;;4898921;29;20487;-44
2021/06/25 01:35:03;;;;;;;6.63;3.30;;;;;;;;;;4899084;29;20088;-44
2021/06/25 01:37:29;;;;;;;8.02;3.28;;;;;;;;;;4898830;29;20036;-43
2021/06/25 01:39:55;;;;;;;7.20;3.08;;;;;;;;;;4898721;29;20049;-44
2021/06/25 01:42:20;;;;;;;12.20;3.33;;;;;;;;;;4898854;29;20044;-44
2021/06/25 01:44:46;;;;;;;7.60;2.97;;;;;;;;;;4898771;29;20112;-43
2021/06/25 01:47:11;;;;;;;3.58;2.58;;;;;;;;;;4898585;29;20119;-45
2021/06/25 01:49:37;;;;;;;12.77;3.55;;;;;;;;;;4898634;29;20144;-43
2021/06/25 01:52:03;;;;;;;10.93;4.15;;;;;;;;;;4898145;29;20025;-43
2021/06/25 01:54:28;;;;;;;5.68;2.72;;;;;;;;;;4898641;29;20080;-43
2021/06/25 01:56:54;;;;;;;9.90;3.05;;;;;;;;;;4898714;29;20025;-43
2021/06/25 01:59:20;;;;;;;4.68;2.50;;;;;;;;;;4898549;29;20080;-43
2021/06/25 02:01:45;;;;;;;3.88;2.70;;;;;;;;;;4897109;29;20024;-45
2021/06/25 02:04:10;;;;;;;5.45;2.95;;;;;;;;;;4897376;29;20025;-44
2021/06/25 02:06:35;;;;;;;6.25;2.60;;;;;;;;;;4898417;29;20611;-43
2021/06/25 02:09:02;;;;;;;5.78;2.80;;;;;;;;;;4898248;29;20044;-43
2021/06/25 02:11:28;;;;;;;6.32;2.83;;;;;;;;;;4898332;29;20030;-43
2021/06/25 02:13:53;;;;;;;5.13;3.10;;;;;;;;;;4898121;29;20025;-43
2021/06/25 02:16:18;;;;;;;9.40;2.90;;;;;;;;;;4898314;29;20095;-43
2021/06/25 02:18:44;;;;;;;8.70;2.80;;;;;;;;;;4898016;29;20032;-43
2021/06/25 02:21:09;;;;;;;5.05;2.53;;;;;;;;;;4898292;29;20383;-43
2021/06/25 02:23:34;;;;;;;4.47;2.58;;;;;;;;;;4898027;29;20091;-43
2021/06/25 02:26:00;;;;;;;9.98;3.55;;;;;;;;;;4897874;29;20033;-43
2021/06/25 02:28:25;;;;;;;11.18;3.03;;;;;;;;;;4897820;29;20028;-44
2021/06/25 02:30:51;;;;;;;9.30;2.47;;;;;;;;;;4897922;29;20436;-43
2021/06/25 02:33:16;;;;;;;3.55;2.22;;;;;;;;;;4897763;29;20035;-43
2021/06/25 02:35:41;;;;;;;7.18;2.28;;;;;;;;;;4898107;29;20024;-43
2021/06/25 02:38:07;;;;;;;7.72;2.63;;;;;;;;;;4897492;29;20127;-45
2021/06/25 02:40:32;;;;;;;11.50;2.70;;;;;;;;;;4898204;29;20033;-43
2021/06/25 02:42:58;;;;;;;3.35;1.73;;;;;;;;;;4897696;29;20372;-43
2021/06/25 02:45:23;;;;;;;2.95;2.15;;;;;;;;;;4897759;29;20024;-43
2021/06/25 02:47:48;;;;;;;6.95;2.97;;;;;;;;;;4897589;29;20037;-43
2021/06/25 02:50:14;;;;;;;7.85;2.80;;;;;;;;;;4897822;29;20028;-43
2021/06/25 02:52:41;;;;;;;7.72;2.08;;;;;;;;;;4897389;29;20045;-43
2021/06/25 02:55:07;;;;;;;5.70;2.15;;;;;;;;;;4897773;29;20025;-43
2021/06/25 02:57:32;;;;;;;3.88;2.17;;;;;;;;;;4897398;29;20033;-43
2021/06/25 02:59:58;;;;;;;6.10;1.95;;;;;;;;;;4896468;29;20239;-43
2021/06/25 03:02:23;;;;;;;7.05;2.20;;;;;;;;;;4897432;29;20123;-43
2021/06/25 03:04:48;;;;;;;7.07;2.38;;;;;;;;;;4896755;29;20021;-43
2021/06/25 03:07:14;;;;;;;14.77;2.20;;;;;;;;;;4897565;29;20041;-43
2021/06/25 03:09:39;;;;;;;3.80;2.17;;;;;;;;;;4897204;29;20424;-43
2021/06/25 03:12:05;;;;;;;3.67;2.10;;;;;;;;;;4897608;29;20428;-43
2021/06/25 03:14:30;;;;;;;5.95;2.38;;;;;;;;;;4895883;29;20032;-43
2021/06/25 03:16:55;;;;;;;3.40;1.80;;;;;;;;;;4897440;29;20357;-44
2021/06/25 03:19:21;;;;;;;5.47;2.30;;;;;;;;;;4897446;29;20028;-43
2021/06/25 03:21:46;;;;;;;6.38;2.75;;;;;;;;;;4897211;29;20064;-43
2021/06/25 03:24:11;;;;;;;5.28;2.60;;;;;;;;;;4897147;29;20013;-43
2021/06/25 03:26:38;;;;;;;4.28;2.17;;;;;;;;;;4897327;29;20051;-43
2021/06/25 03:29:03;;;;;;;5.38;2.28;;;;;;;;;;4897258;29;20052;-43
2021/06/25 03:31:29;;;;;;;4.40;2.35;;;;;;;;;;4897087;29;20472;-43
2021/06/25 03:33:54;;;;;;;6.10;2.70;;;;;;;;;;4895901;29;20028;-43
2021/06/25 03:36:19;;;;;;;6.03;2.00;;;;;;;;;;4897149;29;20552;-44
2021/06/25 03:38:45;;;;;;;5.32;2.15;;;;;;;;;;4896928;29;20174;-43
2021/06/25 03:41:10;;;;;;;8.88;2.20;;;;;;;;;;4897076;29;20115;-43
2021/06/25 03:43:35;;;;;;;4.93;1.80;;;;;;;;;;4896969;29;20551;-43
2021/06/25 03:46:01;;;;;;;4.28;1.92;;;;;;;;;;4897236;29;20112;-43
2021/06/25 03:48:26;;;;;;;5.60;1.90;;;;;;;;;;4896838;29;20052;-43
2021/06/25 03:50:52;;;;;;;5.70;1.88;;;;;;;;;;4897024;29;20063;-43
2021/06/25 03:53:17;;;;;;;1.50;1.30;;;;;;;;;;4897239;29;20025;-43
2021/06/25 03:58:27;;;;;;;4.40;1.80;;;;;;;;;;4896747;29;20028;-43
2021/06/25 04:00:53;;;;;;;2.17;1.05;;;;;;;;;;4896915;29;20076;-43
2021/06/25 04:03:18;;;;;;;5.43;1.65;;;;;;;;;;4896793;29;20044;-43
2021/06/25 04:05:43;;;;;;;3.00;1.08;;;;;;;;;;4896689;29;20031;-43
2021/06/25 04:08:09;;;;;;;3.20;1.38;;;;;;;;;;4896805;29;20092;-43
2021/06/25 04:10:35;;;;;;;3.65;1.90;;;;;;;;;;4896780;29;20028;-43
2021/06/25 04:13:00;;;;;;;2.47;1.38;;;;;;;;;;4895518;29;20036;-43
2021/06/25 04:15:26;;;;;;;2.80;1.10;;;;;;;;;;4898791;29;20099;-44
2021/06/25 04:17:51;;;;;;;3.30;1.20;;;;;;;;;;4899013;29;20036;-45
2021/06/25 04:20:17;;;;;;;1.25;1.15;;;;;;;;;;4899074;29;20020;-44
2021/06/25 04:22:43;;;;;;;2.63;1.60;;;;;;;;;;4900418;29;20029;-43
2021/06/25 04:25:09;;;;;;;2.42;1.40;;;;;;;;;;4898861;29;20494;-44
2021/06/25 04:27:34;;;;;;;5.97;1.45;;;;;;;;;;4899993;29;20047;-43
2021/06/25 04:30:00;;;;;;;2.75;1.30;;;;;;;;;;4900309;29;20020;-43
2021/06/25 04:32:27;;;;;;;4.13;1.55;;;;;;;;;;4900144;29;20044;-43
2021/06/25 04:34:52;;;;;;;5.72;1.40;;;;;;;;;;4900298;29;20375;-43
2021/06/25 04:37:18;;;;;;;2.40;1.75;;;;;;;;;;4899953;29;20043;-43
2021/06/25 04:39:43;;;;;;;6.20;1.80;;;;;;;;;;4898377;29;20404;-43
2021/06/25 04:42:09;;;;;;;4.45;1.95;;;;;;;;;;4899856;29;20036;-43
2021/06/25 04:44:35;;;;;;;10.68;2.22;;;;;;;;;;4900006;29;20024;-43
2021/06/25 04:47:01;;;;;;;3.33;2.08;;;;;;;;;;4899741;29;20535;-43
2021/06/25 04:49:26;;;;;;;3.42;1.88;;;;;;;;;;4899817;29;20017;-44
2021/06/25 04:51:52;;;;;;;2.97;1.95;;;;;;;;;;4899689;29;20029;-43
2021/06/25 04:54:17;;;;;;;9.07;2.53;;;;;;;;;;4899860;29;20021;-43
2021/06/25 04:56:42;;;;;;;4.43;2.25;;;;;;;;;;4899508;29;20403;-43
2021/06/25 04:59:08;;;;;;;6.75;2.00;;;;;;;;;;4899548;29;20012;-43
2021/06/25 05:01:33;;;;;;;4.32;2.13;;;;;;;;;;4899319;29;20044;-43
2021/06/25 05:03:58;;;;;;;6.57;2.65;;;;;;;;;;4899719;29;20024;-43
2021/06/25 05:06:24;;;;;;;6.13;2.92;;;;;;;;;;4899282;29;20463;-43
2021/06/25 05:08:49;;;;;;;7.65;3.15;;;;;;;;;;4899297;29;20020;-43
2021/06/25 05:11:14;;;;;;;5.03;2.08;;;;;;;;;;4899429;29;20036;-44
2021/06/25 05:13:40;;;;;;;7.95;2.78;;;;;;;;;;4899215;29;20388;-43
2021/06/25 05:16:05;;;;;;;3.88;2.70;;;;;;;;;;4899140;29;20059;-43
2021/06/25 05:18:31;;;;;;;9.57;3.08;;;;;;;;;;4899413;29;20081;-44
2021/06/25 05:20:57;;;;;;;6.75;3.05;;;;;;;;;;4899142;29;20033;-43
2021/06/25 05:23:22;;;;;;;10.48;3.47;;;;;;;;;;4899026;29;20544;-43
2021/06/25 05:25:48;;;;;;;5.22;3.35;;;;;;;;;;4898467;29;20039;-43
2021/06/25 05:28:14;;;;;;;6.80;2.95;;;;;;;;;;4898728;29;20035;-44
2021/06/25 05:30:39;;;;;;;3.33;2.30;;;;;;;;;;4899154;29;20041;-44
2021/06/25 05:33:05;;;;;;;6.32;2.53;;;;;;;;;;4899184;29;20032;-45
2021/06/25 05:35:31;;;;;;;8.25;2.55;;;;;;;;;;4898823;29;20455;-42
2021/06/25 05:38:00;;;;;;;4.70;2.22;;;;;;;;;;4898603;29;20044;-43
2021/06/25 05:40:26;;;;;;;3.92;2.22;;;;;;;;;;4898661;29;20033;-43
2021/06/25 05:42:51;;;;;;;4.95;2.28;;;;;;;;;;4898830;29;20031;-43
2021/06/25 05:45:17;;;;;;;7.57;2.85;;;;;;;;;;4898865;29;20119;-43
2021/06/25 05:47:42;;;;;;;6.63;3.13;;;;;;;;;;4898539;29;20440;-43
2021/06/25 05:50:08;;;;;;;4.82;2.17;;;;;;;;;;4898651;29;20020;-43
2021/06/25 05:52:33;;;;;;;5.28;2.40;;;;;;;;;;4898453;29;20051;-43
2021/06/25 05:54:58;;;;;;;5.38;2.10;;;;;;;;;;4897314;29;20069;-43
2021/06/25 05:57:24;;;;;;;10.98;3.08;;;;;;;;;;4898414;29;20020;-43
2021/06/25 05:59:49;;;;;;;4.78;2.60;;;;;;;;;;4898640;29;20124;-43
2021/06/25 06:02:14;;;;;;;5.60;2.75;;;;;;;;;;4898762;29;20032;-43
2021/06/25 06:04:40;;;;;;;4.95;3.13;;;;;;;;;;4898442;29;20029;-43
2021/06/25 06:07:06;;;;;;;8.50;2.75;;;;;;;;;;4898515;29;20474;-43
2021/06/25 06:09:32;;;;;;;2.72;2.38;;;;;;;;;;4898247;29;20432;-44
2021/06/25 06:11:57;;;;;;;11.68;3.85;;;;;;;;;;4898471;29;20024;-43
2021/06/25 06:14:23;;;;;;;7.32;3.83;;;;;;;;;;4898104;29;20120;-43
2021/06/25 06:16:48;;;;;;;7.43;2.92;;;;;;;;;;4898194;29;20024;-44
2021/06/25 06:19:16;;;;;;;3.60;2.60;;;;;;;;;;4898063;29;20076;-43
2021/06/25 06:33:14;;;;;;;6.28;2.20;;;;;;;;;;4896949;29;20041;-43
2021/06/25 06:35:29;;;;;;;3.45;2.17;;;;;;;;;;4897521;29;20052;-44
2021/06/25 06:38:01;;;;;;;5.00;1.90;;;;;;;;;;4896371;29;20060;-43
2021/06/25 06:40:26;;;;;;;5.13;2.20;;;;;;;;;;4897900;29;20039;-43
2021/06/25 06:42:52;;;;;;;5.60;1.92;;;;;;;;;;4896539;29;20032;-43
2021/06/25 06:45:17;;;;;;;3.70;1.80;;;;;;;;;;4896440;29;20540;-44
2021/06/25 06:47:43;;;;;;;5.43;1.83;;;;;;;;;;4897488;29;20583;-43
2021/06/25 06:50:09;;;;;;;5.03;2.30;;;;;;;;;;4897665;29;20115;-43
2021/06/25 06:52:34;;;;;;;3.05;2.05;;;;;;;;;;4897745;29;20108;-43
2021/06/25 06:55:00;;;;;;;6.03;1.58;;;;;;;;;;4897801;29;20113;-43
2021/06/25 06:57:25;;;;;;;1.73;1.17;;;;;;;;;;4897723;29;20032;-44
2021/06/25 06:59:50;;;;;;;3.38;1.70;;;;;;;;;;4896231;29;20035;-43
2021/06/25 07:02:16;;;;;;;7.13;1.45;;;;;;;;;;4897419;29;20090;-44
2021/06/25 07:04:41;;;;;;;1.48;1.25;;;;;;;;;;4897588;29;20111;-43
2021/06/25 07:07:06;;;;;;;2.17;1.30;;;;;;;;;;4897323;29;20472;-43
2021/06/25 07:09:32;;;;;;;4.57;1.10;;;;;;;;;;4897220;29;20028;-44
2021/06/25 07:11:57;;;;;;;1.73;1.02;;;;;;;;;;4897592;29;20104;-44
2021/06/25 07:14:22;;;;;;;2.00;1.25;;;;;;;;;;4897473;29;20096;-44
2021/06/25 07:16:48;;;;;;;1.08;0.70;;;;;;;;;;4897203;29;20063;-44
2021/06/25 07:19:13;;;;;;;2.90;0.98;;;;;;;;;;4897251;29;20031;-44
2021/06/25 07:21:39;;;;;;;1.48;0.98;;;;;;;;;;4897465;29;20443;-44
2021/06/25 07:24:04;;;;;;;1.40;1.13;;;;;;;;;;4897430;29;20043;-43
2021/06/25 07:26:30;;;;;;;1.10;0.80;;;;;;;;;;4897029;29;20508;-44
2021/06/25 07:28:55;;;;;;;1.58;0.90;;;;;;;;;;4897085;29;20064;-44
2021/06/25 07:31:21;;;;;;;2.20;1.35;;;;;;;;;;4897127;29;20039;-44
2021/06/25 07:33:46;;;;;;;1.10;0.98;;;;;;;;;;4897330;29;20112;-43
2021/06/25 07:36:12;;;;;;;1.20;0.88;;;;;;;;;;4897145;29;20082;-45
2021/06/25 07:38:37;;;;;;;0.55;0.55;;;;;;;;;;4896783;29;20067;-43
2021/06/25 07:41:03;;;;;;;1.60;0.85;;;;;;;;;;4897267;29;20043;-43
2021/06/25 07:43:28;;;;;;;5.25;0.90;;;;;;;;;;4896983;29;20028;-43
2021/06/25 07:45:53;;;;;;;2.55;1.02;;;;;;;;;;4896939;29;20060;-43
2021/06/25 07:48:19;;;;;;;1.40;0.85;;;;;;;;;;4896968;29;20032;-43
2021/06/25 07:50:44;;;;;;;1.33;0.98;;;;;;;;;;4899950;29;20020;-43
2021/06/25 07:53:10;;;;;;;1.23;0.70;;;;;;;;;;4900631;29;20476;-44
2021/06/25 07:55:42;;;;;;;2.47;1.08;;;;;;;;;;4900603;29;20032;-43
2021/06/25 07:58:10;;;;;;;0.73;0.60;;;;;;;;;;4900610;29;20036;-43
2021/06/25 08:00:35;;;;;;;0.50;0.50;;;;;;;;;;4900471;29;20546;-43
2021/06/25 08:03:01;;;;;;;1.15;0.90;;;;;;;;;;4900984;29;20037;-43
2021/06/25 08:05:26;;;;;;;3.83;0.63;;;;;;;;;;4900451;29;20448;-43
2021/06/25 08:07:51;;;;;;;7.03;1.63;;;;;;;;;;4899385;29;20051;-45
2021/06/25 08:10:17;;;;;;;3.60;0.93;;;;;;;;;;4900546;29;20017;-43
2021/06/25 08:12:42;;;;;;;2.83;0.80;;;;;;;;;;4900256;29;20064;-43
2021/06/25 08:15:08;;;;;;;11.38;1.88;;;;;;;;;;4900402;29;20017;-43
2021/06/25 08:17:34;;;;;;;1.13;0.60;;;;;;;;;;4898676;29;20033;-43
2021/06/25 08:19:59;;;;;;;0.82;0.55;;;;;;;;;;4900251;29;20096;-43
2021/06/25 08:22:25;;;;;;;1.17;0.90;;;;;;;;;;4900248;29;20032;-44
2021/06/25 08:24:50;;;;;;;2.33;1.13;;;;;;;;;;4900253;29;20017;-43
2021/06/25 08:27:15;;;;;;;3.05;1.10;;;;;;;;;;4899997;29;20052;-43
2021/06/25 08:29:41;;;;;;;3.42;0.88;;;;;;;;;;4899976;29;20017;-44
2021/06/25 08:32:07;;;;;;;1.58;0.60;;;;;;;;;;4900360;29;20033;-44
2021/06/25 08:34:32;;;;;;;3.08;0.82;;;;;;;;;;4899988;29;20107;-43
2021/06/25 08:36:58;;;;;;;1.58;1.00;;;;;;;;;;4900066;29;20084;-44
2021/06/25 08:39:25;;;;;;;1.48;0.82;;;;;;;;;;4899633;29;20512;-43
2021/06/25 08:41:52;;;;;;;3.20;0.80;;;;;;;;;;4900142;29;20032;-44
2021/06/25 08:44:18;;;;;;;2.03;0.88;;;;;;;;;;4899878;29;20024;-44
2021/06/25 08:46:46;;;;;;;1.25;0.82;;;;;;;;;;4898544;29;20044;-43
2021/06/25 08:49:11;;;;;;;0.60;0.60;;;;;;;;;;4899710;29;20020;-43
2021/06/25 08:51:37;;;;;;;6.13;0.77;;;;;;;;;;4899659;29;20040;-43
2021/06/25 08:54:03;;;;;;;0.70;0.70;;;;;;;;;;4898899;29;20025;-44
2021/06/25 08:56:29;;;;;;;2.67;1.00;;;;;;;;;;4899741;29;20539;-44
2021/06/25 08:58:55;;;;;;;0.93;0.70;;;;;;;;;;4899617;29;20024;-44
2021/06/25 09:01:22;;;;;;;0.70;0.55;;;;;;;;;;4898705;29;20052;-43
2021/06/25 09:03:51;;;;;;;0.80;0.50;;;;;;;;;;4899589;29;20096;-43
2021/06/25 09:06:16;;;;;;;2.25;0.80;;;;;;;;;;4899705;29;20132;-44
2021/06/25 09:08:42;;;;;;;1.20;0.63;;;;;;;;;;4899569;29;20063;-44
2021/06/25 09:11:24;;;;;;;0.47;0.43;;;;;;;;;;4899340;29;20036;-43
2021/06/25 09:13:57;;;;;;;2.05;0.82;;;;;;;;;;4899308;29;20040;-43
2021/06/25 09:16:26;;;;;;;2.60;0.80;;;;;;;;;;4899408;29;20502;-43
2021/06/25 09:18:56;;;;;;;1.80;0.60;;;;;;;;;;4897935;29;20036;-43
2021/06/25 09:21:22;;;;;;;2.55;0.90;;;;;;;;;;4899259;29;20370;-43
2021/06/25 09:23:47;;;;;;;1.95;0.50;;;;;;;;;;4899047;29;20158;-43
2021/06/25 09:26:13;;;;;;;2.22;1.08;;;;;;;;;;4898858;29;20099;-43
2021/06/25 09:28:40;;;;;;;1.80;1.00;;;;;;;;;;4899494;29;20043;-44
2021/06/25 09:31:11;;;;;;;2.97;1.10;;;;;;;;;;4898850;29;20123;-44
2021/06/25 09:33:41;;;;;;;2.45;0.77;;;;;;;;;;4898537;29;20029;-43
2021/06/25 09:36:07;;;;;;;0.60;0.55;;;;;;;;;;4898922;29;20036;-43
2021/06/25 09:38:37;;;;;;;1.38;0.60;;;;;;;;;;4881764;29;20040;-44
2021/06/25 09:41:15;;;;;;;8.25;0.75;;;;;;;;;;4898872;29;20055;-44
2021/06/25 09:43:40;;;;;;;1.50;0.70;;;;;;;;;;4898803;29;20029;-44
2021/06/25 09:46:06;;;;;;;1.75;0.60;;;;;;;;;;4898709;29;20043;-43
2021/06/25 09:48:49;;;;;;;0.80;0.50;;;;;;;;;;4898547;29;20072;-43
2021/06/25 09:51:15;;;;;;;3.63;0.85;;;;;;;;;;4898669;29;20032;-44
2021/06/25 09:54:00;;;;;;;0.35;0.32;;;;;;;;;;4898446;29;20376;-43
2021/06/25 09:56:26;;;;;;;0.52;0.50;;;;;;;;;;4898553;29;20037;-44
2021/06/25 09:59:00;;;;;;;2.33;0.57;;;;;;;;;;4897255;29;20103;-44
2021/06/25 10:01:26;;;;;;;0.75;0.75;;;;;;;;;;4898358;29;20040;-43
2021/06/25 10:03:53;;;;;;;4.88;0.98;;;;;;;;;;4898345;29;20024;-43
2021/06/25 10:06:20;;;;;;;1.60;0.55;;;;;;;;;;4898360;29;20119;-44
2021/06/25 10:08:46;;;;;;;0.73;0.57;;;;;;;;;;4898424;29;20437;-43
2021/06/25 10:11:12;;;;;;;2.20;0.60;;;;;;;;;;4898363;29;20119;-44
2021/06/25 10:13:38;;;;;;;0.70;0.43;;;;;;;;;;4896564;29;20072;-43
2021/06/25 10:16:04;;;;;;;2.42;0.30;;;;;;;;;;4898376;29;20040;-43
2021/06/25 10:18:34;;;;;;;0.80;0.40;;;;;;;;;;4898132;29;20021;-43
2021/06/25 10:20:59;;;;;;;1.33;0.65;;;;;;;;;;4898043;29;20033;-43
2021/06/25 10:23:26;;;;;;;0.40;0.40;;;;;;;;;;4898266;29;20025;-43
2021/06/25 10:25:52;;;;;;;0.60;0.60;;;;;;;;;;4897957;29;20080;-44
2021/06/25 10:28:18;;;;;;;1.33;0.55;;;;;;;;;;4896635;29;20020;-44
2021/06/25 10:30:47;;;;;;;1.25;0.40;;;;;;;;;;4897879;29;20036;-44
2021/06/25 10:33:12;;;;;;;1.05;0.50;;;;;;;;;;4898151;29;20440;-44
2021/06/25 10:35:39;;;;;;;0.47;0.20;;;;;;;;;;4880940;29;20067;-44
2021/06/25 10:38:04;;;;;;;0.93;0.50;;;;;;;;;;4897611;29;20503;-43
2021/06/25 10:40:30;;;;;;;0.98;0.52;;;;;;;;;;4897679;29;20028;-43
2021/06/25 10:42:57;;;;;;;3.78;0.50;;;;;;;;;;4897713;29;20048;-43
2021/06/25 10:45:42;;;;;;;1.23;0.80;;;;;;;;;;4897709;29;20029;-43
2021/06/25 10:48:08;;;;;;;1.02;0.30;;;;;;;;;;4897329;29;20056;-43
2021/06/25 10:50:34;;;;;;;2.30;0.60;;;;;;;;;;4897423;29;20483;-44
2021/06/25 10:53:10;;;;;;;0.68;0.68;;;;;;;;;;4897657;29;20403;-43
2021/06/25 10:55:45;;;;;;;2.55;0.60;;;;;;;;;;4897751;29;20150;-43
2021/06/25 10:58:12;;;;;;;1.45;0.82;;;;;;;;;;4897675;29;20387;-43
2021/06/25 11:00:38;;;;;;;0.70;0.30;;;;;;;;;;4897611;29;20020;-43
2021/06/25 11:03:03;;;;;;;1.58;0.40;;;;;;;;;;4897780;29;20369;-43
2021/06/25 11:05:35;;;;;;;3.30;0.55;;;;;;;;;;4897270;29;20017;-43
2021/06/25 11:08:18;;;;;;;0.82;0.52;;;;;;;;;;4897313;29;20044;-43
2021/06/25 11:10:50;;;;;;;2.00;0.57;;;;;;;;;;4897535;29;20548;-44
2021/06/25 11:13:16;;;;;;;0.82;0.22;;;;;;;;;;4897435;29;20033;-43
2021/06/25 11:15:43;;;;;;;2.22;1.27;;;;;;;;;;4897273;29;20020;-43
2021/06/25 11:18:15;;;;;;;0.50;0.22;;;;;;;;;;4897464;29;20032;-43
2021/06/25 11:20:52;;;;;;;1.20;0.40;;;;;;;;;;4897250;29;20025;-43
2021/06/25 11:23:24;;;;;;;0.93;0.60;;;;;;;;;;4897207;29;20040;-43
2021/06/25 11:25:51;;;;;;;1.20;0.47;;;;;;;;;;4896558;29;20021;-44
2021/06/25 11:28:39;;;;;;;0.60;0.30;;;;;;;;;;4897401;29;20044;-44
2021/06/25 11:31:17;;;;;;;0.50;0.45;;;;;;;;;;4897154;29;20029;-44
2021/06/25 11:36:19;;;;;;;0.50;0.50;;;;;;;;;;4897092;29;20044;-44
2021/06/25 11:39:04;;;;;;;3.55;0.80;;;;;;;;;;4897032;29;20047;-45
2021/06/25 11:41:34;;;;;;;3.20;0.63;;;;;;;;;;4896626;29;20029;-43
2021/06/25 11:44:01;;;;;;;1.67;0.47;;;;;;;;;;4897213;29;20550;-43
2021/06/25 11:46:27;;;;;;;1.55;0.90;;;;;;;;;;4895534;29;20508;-43
2021/06/25 11:48:58;;;;;;;1.60;0.60;;;;;;;;;;4897300;29;20037;-43
2021/06/25 11:51:32;;;;;;;0.93;0.60;;;;;;;;;;4897109;29;20040;-43
2021/06/25 11:53:58;;;;;;;1.55;0.40;;;;;;;;;;4896924;29;20502;-43
2021/06/25 11:56:23;;;;;;;1.40;0.70;;;;;;;;;;4895737;29;20024;-43
2021/06/25 11:58:59;;;;;;;0.32;0.32;;;;;;;;;;4896842;29;20036;-43
2021/06/25 12:01:25;;;;;;;4.22;0.43;;;;;;;;;;4897150;29;20031;-43
2021/06/25 12:03:51;;;;;;;3.25;0.60;;;;;;;;;;4897482;29;20108;-43
2021/06/25 12:06:17;;;;;;;0.50;0.50;;;;;;;;;;4895577;29;20461;-44
2021/06/25 12:08:59;;;;;;;2.28;0.95;;;;;;;;;;4896721;29;20479;-43
2021/06/25 12:11:25;;;;;;;1.50;0.50;;;;;;;;;;4895640;29;20048;-43
2021/06/25 12:13:59;;;;;;;2.20;0.50;;;;;;;;;;4896963;29;20029;-44
2021/06/25 12:16:24;;;;;;;0.50;0.45;;;;;;;;;;4897099;29;20031;-43
2021/06/25 12:18:50;;;;;;;2.92;0.70;;;;;;;;;;4896916;29;20028;-43
2021/06/25 12:21:17;;;;;;;2.78;0.80;;;;;;;;;;4896824;29;20037;-43
2021/06/25 12:23:42;;;;;;;0.82;0.52;;;;;;;;;;4896934;29;20027;-43
2021/06/25 12:26:18;;;;;;;0.80;0.50;;;;;;;;;;4896910;29;20028;-43
2021/06/25 12:28:45;;;;;;;1.10;0.57;;;;;;;;;;4895308;29;20496;-44
2021/06/25 12:31:14;;;;;;;1.30;0.63;;;;;;;;;;4896629;29;20483;-43
2021/06/25 12:33:39;;;;;;;0.73;0.73;;;;;;;;;;4896439;29;20534;-43
2021/06/25 12:36:05;;;;;;;4.03;1.20;;;;;;;;;;4898331;29;20060;-44
2021/06/25 12:38:32;;;;;;;3.70;0.80;;;;;;;;;;4882876;29;20060;-43
2021/06/25 12:40:59;;;;;;;1.45;0.47;;;;;;;;;;4899907;29;20025;-43
2021/06/25 12:43:30;;;;;;;1.95;0.50;;;;;;;;;;4899852;29;20072;-43
2021/06/25 12:45:58;;;;;;;6.65;0.68;;;;;;;;;;4899811;29;20044;-43
2021/06/25 12:48:28;;;;;;;3.85;0.68;;;;;;;;;;4899697;29;20031;-43
2021/06/25 12:50:55;;;;;;;1.17;0.85;;;;;;;;;;4899721;29;20580;-43
2021/06/25 12:53:30;;;;;;;1.48;0.70;;;;;;;;;;4899706;29;20076;-44
2021/06/25 12:55:58;;;;;;;0.90;0.63;;;;;;;;;;4899695;29;20043;-43
2021/06/25 12:58:24;;;;;;;0.60;0.40;;;;;;;;;;4899543;29;20020;-44
2021/06/25 13:00:56;;;;;;;0.73;0.52;;;;;;;;;;4899504;29;20104;-43
2021/06/25 13:03:22;;;;;;;5.15;0.90;;;;;;;;;;4899843;29;20095;-43
2021/06/25 13:05:48;;;;;;;1.33;0.57;;;;;;;;;;4899231;29;20025;-43
2021/06/25 13:08:26;;;;;;;0.50;0.50;;;;;;;;;;4899366;29;20048;-44
2021/06/25 13:10:51;;;;;;;1.25;0.68;;;;;;;;;;4899367;29;20067;-44
2021/06/25 13:13:18;;;;;;;0.85;0.50;;;;;;;;;;4899286;29;20073;-43
2021/06/25 13:15:47;;;;;;;1.00;0.70;;;;;;;;;;4899537;29;20040;-43
2021/06/25 13:18:13;;;;;;;1.35;0.57;;;;;;;;;;4899478;29;20047;-44
2021/06/25 13:20:57;;;;;;;2.95;0.60;;;;;;;;;;4899156;29;20483;-43
2021/06/25 13:23:23;;;;;;;1.77;0.43;;;;;;;;;;4899531;29;20044;-44
2021/06/25 13:25:52;;;;;;;0.47;0.43;;;;;;;;;;4899031;29;20079;-43
2021/06/25 13:28:17;;;;;;;2.05;0.60;;;;;;;;;;4898996;29;20047;-43
2021/06/25 13:30:44;;;;;;;2.65;0.50;;;;;;;;;;4899015;29;20388;-44
2021/06/25 13:33:12;;;;;;;2.40;0.63;;;;;;;;;;4898924;29;20408;-43
2021/06/25 13:35:45;;;;;;;4.25;0.65;;;;;;;;;;4897729;29;20383;-43
2021/06/25 13:38:28;;;;;;;3.28;0.63;;;;;;;;;;4898924;29;20056;-43
2021/06/25 13:41:11;;;;;;;3.40;0.70;;;;;;;;;;4897751;29;20040;-43
2021/06/25 13:43:37;;;;;;;3.17;0.60;;;;;;;;;;4898761;29;20029;-44
2021/06/25 13:46:07;;;;;;;1.30;0.45;;;;;;;;;;4898831;29;20036;-44
2021/06/25 13:48:32;;;;;;;0.80;0.60;;;;;;;;;;4898143;29;20384;-44
2021/06/25 13:51:00;;;;;;;5.28;0.50;;;;;;;;;;4898806;29;20079;-43
2021/06/25 13:53:34;;;;;;;3.80;0.80;;;;;;;;;;4898591;29;20041;-43
2021/06/25 13:56:01;;;;;;;0.60;0.60;;;;;;;;;;4898883;29;20040;-44
2021/06/25 13:58:26;;;;;;;1.38;0.50;;;;;;;;;;4898528;29;20472;-46
2021/06/25 14:00:59;;;;;;;1.27;0.90;;;;;;;;;;4898447;29;20092;-43
2021/06/25 14:03:26;;;;;;;2.30;0.45;;;;;;;;;;4897184;29;20448;-43
2021/06/25 14:06:04;;;;;;;2.38;0.52;;;;;;;;;;4898298;29;20507;-43
2021/06/25 14:08:43;;;;;;;0.75;0.55;;;;;;;;;;4897001;29;20044;-43
2021/06/25 14:11:18;;;;;;;6.05;0.90;;;;;;;;;;4898298;29;20040;-43
2021/06/25 14:13:45;;;;;;;1.92;0.63;;;;;;;;;;4898471;29;20032;-43
2021/06/25 14:16:24;;;;;;;0.85;0.70;;;;;;;;;;4898231;29;20028;-43
2021/06/25 14:18:54;;;;;;;0.60;0.40;;;;;;;;;;4898004;29;20088;-43
2021/06/25 14:21:22;;;;;;;3.10;0.90;;;;;;;;;;4898398;29;20029;-44
2021/06/25 14:23:48;;;;;;;3.00;0.73;;;;;;;;;;4896830;29;20064;-45
2021/06/25 14:26:14;;;;;;;1.58;0.60;;;;;;;;;;4898278;29;20092;-43
2021/06/25 14:28:39;;;;;;;2.50;1.38;;;;;;;;;;4897941;29;20476;-43
2021/06/25 14:31:05;;;;;;;0.38;0.30;;;;;;;;;;4897865;29;20020;-43
2021/06/25 14:33:30;;;;;;;3.70;0.98;;;;;;;;;;4897824;29;20036;-43
2021/06/25 14:35:56;;;;;;;3.65;0.63;;;;;;;;;;4897944;29;20028;-43
2021/06/25 14:38:21;;;;;;;1.65;0.68;;;;;;;;;;4897577;29;20146;-43
2021/06/25 14:40:47;;;;;;;0.65;0.60;;;;;;;;;;4898050;29;20040;-43
2021/06/25 14:43:13;;;;;;;1.10;0.73;;;;;;;;;;4897769;29;20044;-44
2021/06/25 14:45:38;;;;;;;1.42;0.70;;;;;;;;;;4897895;29;20116;-43
2021/06/25 14:48:04;;;;;;;1.05;0.82;;;;;;;;;;4897649;29;20036;-43
2021/06/25 14:50:29;;;;;;;2.65;0.73;;;;;;;;;;4897889;29;20103;-43
2021/06/25 14:52:55;;;;;;;0.95;0.90;;;;;;;;;;4897843;29;20511;-43
2021/06/25 14:55:20;;;;;;;0.73;0.73;;;;;;;;;;4897854;29;20072;-43
2021/06/25 14:57:46;;;;;;;2.78;0.77;;;;;;;;;;4897713;29;20392;-43